Airfield :
LOGIN :

Register | Disclaimer

   EN    FR    IT 

 










Legend :    VFR   Marginal VFR   IFR   Intensive IFR   Very Intensive IFR
Visi :
Ceiling :
>= 8 km
>= 3000ft
5 to 8 km
1000 to 3000 ft
1500m to 5 km
500 to 1000 ft
800 to 1500m
200 to 500 ft
< 800m
< 200 ft
Symbols :   Thunderstorms  Fog  Heavy snow  Heavy precipitations  Wind > 20 kt
SIGMETs :     Misc.  Thunderstorms  Icing  Turbulence  Mountain Waves  Volcanic Ashes







- Airport Elevation : 56 ft
- IATA code : ILY
- Download approach charts


EGPI - Islay

CURRENT METAR :
  • 210820Z 13024KT 080V150 CAVOK 15/10 Q1008

EXPIRED METARs :
  • 210750Z 13024G34KT 090V150 CAVOK 15/10 Q1008
  • 210720Z 13024KT 080V150 CAVOK 14/10 Q1009
  • 210650Z 13020KT 090V150 9999 FEW010 13/10 Q1009
  • 210620Z AUTO 13015KT 080V150 9999 NCD 13/10 Q1010
  • 210550Z AUTO 13015KT 090V150 9999 NCD 13/10 Q1010

TAF TAF EGPI
Valid from the 21 at 09:00 until the 21 at 18:00 UTC


210804Z 2109/2118 13026KT CAVOK
TEMPO 2115/2118 12015KT
No reported NOTAMs for that airfield.



MET'MAP, your aeronautical weather chart ! - Copyright ORBIFLY December 2007 - Disclaimer

ORBIFLY MET'MAP TEAM :

Programming & Development : Alexandra Zaïnal
Concept & Development : Baudouin d'Aumeries
Co-Development & Prog : Marc-Olivier Méhu
Technical & hardware support : Manuel Goepfert

Contact : metmap@orbifly.com




SOURCES & CREDITS :

   NOAA